Time;durP1;ratioP1;P1;durP2;ratioP2;P2;SDS_P1;SDS_P2;PMS_P1;PMS_P2;Temp;Humidity;BMP_temperature;BMP_pressure;BME280_temperature;BME280_humidity;BME280_pressure;Samples;Min_cycle;Max_cycle;Signal;HPM_P1;HPM_P2
2023/03/07 00:00:07;;;;;;;12.25;10.43;;;10.20;96.70;;;;;;5058949;28;20103;-74
2023/03/07 00:02:35;;;;;;;14.77;10.38;;;10.20;96.70;;;;;;5057253;28;20037;-75
2023/03/07 00:05:03;;;;;;;14.15;11.63;;;10.20;96.70;;;;;;5059188;28;20051;-74
2023/03/07 00:07:32;;;;;;;13.00;11.30;;;10.30;96.70;;;;;;5062659;28;20040;-74
2023/03/07 00:10:02;;;;;;;14.45;11.82;;;10.20;96.70;;;;;;5052545;28;20124;-74
2023/03/07 00:12:30;;;;;;;13.05;11.25;;;10.20;96.70;;;;;;5056521;28;20065;-74
2023/03/07 00:14:58;;;;;;;17.90;12.93;;;10.20;96.70;;;;;;5056832;28;20602;-74
2023/03/07 00:17:26;;;;;;;13.82;11.68;;;10.10;96.70;;;;;;5057254;28;20048;-74
2023/03/07 00:19:54;;;;;;;14.27;12.77;;;10.10;96.70;;;;;;5056606;28;20051;-74
2023/03/07 00:22:22;;;;;;;15.98;12.10;;;10.10;96.70;;;;;;5052332;28;20653;-74
2023/03/07 00:24:50;;;;;;;15.20;13.23;;;10.10;96.70;;;;;;5041922;28;20466;-74
2023/03/07 00:27:20;;;;;;;14.95;12.57;;;10.10;96.70;;;;;;5058426;28;20529;-74
2023/03/07 00:29:49;;;;;;;15.77;12.70;;;10.00;96.70;;;;;;5055234;28;20520;-74
2023/03/07 00:32:17;;;;;;;14.45;12.82;;;10.00;96.70;;;;;;5056555;28;20035;-73
2023/03/07 00:34:45;;;;;;;13.20;11.80;;;10.00;96.70;;;;;;5057985;28;20041;-74
2023/03/07 00:37:14;;;;;;;14.82;11.65;;;10.00;96.70;;;;;;5053939;28;20052;-75
2023/03/07 00:39:42;;;;;;;13.98;11.98;;;10.00;96.70;;;;;;5057163;28;20132;-74
2023/03/07 00:42:10;;;;;;;14.90;13.35;;;10.00;96.70;;;;;;5058331;28;20051;-74
2023/03/07 00:44:40;;;;;;;16.98;12.60;;;9.90;96.70;;;;;;5050364;28;20141;-74
2023/03/07 00:47:08;;;;;;;15.90;12.18;;;9.90;96.70;;;;;;5061856;28;20080;-74
2023/03/07 00:49:36;;;;;;;15.10;12.35;;;9.90;96.70;;;;;;5063365;28;20040;-74
2023/03/07 00:52:04;;;;;;;14.10;11.75;;;9.90;96.70;;;;;;5036973;28;20406;-74
2023/03/07 00:54:33;;;;;;;16.33;13.48;;;9.90;96.70;;;;;;5065635;28;20044;-74
2023/03/07 00:57:01;;;;;;;15.20;12.85;;;9.70;96.70;;;;;;5060781;28;20114;-74
2023/03/07 00:59:30;;;;;;;15.77;12.93;;;9.30;96.70;;;;;;5056105;28;20138;-74
2023/03/07 01:01:59;;;;;;;14.10;11.98;;;9.40;96.70;;;;;;5034516;28;20188;-74
2023/03/07 01:04:27;;;;;;;15.05;12.77;;;9.10;96.70;;;;;;5042546;28;20051;-74
2023/03/07 01:06:55;;;;;;;13.85;10.77;;;9.20;96.70;;;;;;5062359;28;20045;-74
2023/03/07 01:09:23;;;;;;;14.02;12.18;;;9.40;96.70;;;;;;5055834;28;20495;-74
2023/03/07 01:11:52;;;;;;;14.77;12.45;;;9.50;96.70;;;;;;5061768;28;20747;-74
2023/03/07 01:14:20;;;;;;;16.88;13.38;;;9.50;96.70;;;;;;5051132;28;20048;-74
2023/03/07 01:16:48;;;;;;;14.88;13.00;;;9.60;96.70;;;;;;5057582;28;20045;-75
2023/03/07 01:19:18;;;;;;;12.85;11.38;;;9.50;96.70;;;;;;5054186;28;20159;-74
2023/03/07 01:21:47;;;;;;;13.77;12.23;;;9.40;96.70;;;;;;5055494;28;20048;-74
2023/03/07 01:24:15;;;;;;;13.65;12.20;;;9.40;96.70;;;;;;5057441;28;20486;-74
2023/03/07 01:26:44;;;;;;;13.95;11.85;;;9.40;96.70;;;;;;5059332;28;20065;-74
2023/03/07 01:29:12;;;;;;;15.57;12.75;;;9.50;96.70;;;;;;5057272;28;20063;-74
2023/03/07 01:31:41;;;;;;;14.07;12.57;;;9.40;96.70;;;;;;5061614;28;20673;-75
2023/03/07 01:34:09;;;;;;;13.20;11.80;;;9.50;96.70;;;;;;5055108;28;20121;-75
2023/03/07 01:36:38;;;;;;;12.75;11.18;;;9.60;96.70;;;;;;5052107;28;20041;-76
2023/03/07 01:39:12;;;;;;;13.00;11.70;;;9.60;96.70;;;;;;5054273;28;20044;-75
2023/03/07 01:42:07;;;;;;;12.07;10.80;;;9.60;96.70;;;;;;5049837;28;20774;-75
2023/03/07 01:44:58;;;;;;;12.15;10.90;;;9.60;96.70;;;;;;5052407;28;20525;-75
2023/03/07 01:47:34;;;;;;;15.13;13.05;;;9.70;96.70;;;;;;5059084;28;20050;-76
2023/03/07 01:50:07;;;;;;;15.88;13.63;;;9.60;96.70;;;;;;5059888;28;20522;-75
2023/03/07 01:52:40;;;;;;;19.25;14.27;;;9.60;96.70;;;;;;5059248;28;20052;-75
2023/03/07 01:55:12;;;;;;;16.77;14.05;;;9.30;96.70;;;;;;5059850;28;20882;-75
2023/03/07 01:57:45;;;;;;;14.45;12.85;;;9.30;96.70;;;;;;5055484;28;20040;-75
2023/03/07 02:00:22;;;;;;;13.88;12.27;;;9.30;96.70;;;;;;5046644;28;20077;-75
2023/03/07 02:02:56;;;;;;;22.58;12.88;;;9.30;96.70;;;;;;5038066;28;20403;-76
2023/03/07 02:05:31;;;;;;;11.77;10.57;;;9.30;96.70;;;;;;5051535;28;20041;-75
2023/03/07 02:08:01;;;;;;;11.80;9.68;;;9.20;96.70;;;;;;5041199;28;20056;-77
2023/03/07 02:10:32;;;;;;;10.60;8.68;;;9.30;96.70;;;;;;5053839;28;20604;-75
2023/03/07 02:13:01;;;;;;;9.63;8.05;;;9.20;96.70;;;;;;5058843;28;20063;-77
2023/03/07 02:15:29;;;;;;;11.27;7.38;;;9.20;96.70;;;;;;5054396;28;20553;-75
2023/03/07 02:17:57;;;;;;;9.55;7.57;;;9.30;96.70;;;;;;5056911;28;20134;-75
2023/03/07 02:20:37;;;;;;;9.20;8.05;;;9.30;96.70;;;;;;5053318;28;20133;-75
2023/03/07 02:23:17;;;;;;;7.90;6.95;;;9.30;96.70;;;;;;5056699;28;20049;-75
2023/03/07 02:25:52;;;;;;;10.07;8.80;;;9.40;96.70;;;;;;5054935;28;20035;-75
2023/03/07 02:28:21;;;;;;;10.38;7.80;;;9.40;96.70;;;;;;5053330;28;20552;-75
2023/03/07 02:30:54;;;;;;;8.85;7.53;;;9.40;96.70;;;;;;5051634;28;20033;-77
2023/03/07 02:33:28;;;;;;;10.65;8.35;;;9.30;96.70;;;;;;5057833;28;20426;-75
2023/03/07 02:36:04;;;;;;;9.77;7.18;;;9.30;96.70;;;;;;5053740;28;20126;-76
2023/03/07 02:38:38;;;;;;;9.13;7.15;;;9.30;96.70;;;;;;5038182;28;20510;-76
2023/03/07 02:41:09;;;;;;;8.85;7.13;;;9.10;96.70;;;;;;5055231;28;20040;-75
2023/03/07 02:43:39;;;;;;;17.42;10.55;;;9.10;96.70;;;;;;5039082;28;20056;-76
2023/03/07 02:46:08;;;;;;;11.93;9.35;;;9.10;96.70;;;;;;5052946;28;20501;-75
2023/03/07 02:48:36;;;;;;;12.80;9.68;;;9.10;96.70;;;;;;5054068;28;20040;-75
2023/03/07 02:51:04;;;;;;;9.30;8.05;;;9.10;96.70;;;;;;5053935;28;20529;-75
2023/03/07 02:53:31;;;;;;;11.13;9.15;;;9.00;96.70;;;;;;5035415;28;20052;-75
2023/03/07 02:55:59;;;;;;;7.43;6.63;;;9.00;96.70;;;;;;5054757;28;20147;-75
2023/03/07 02:58:26;;;;;;;8.15;6.70;;;8.80;96.70;;;;;;5048258;28;20043;-75
2023/03/07 03:00:55;;;;;;;8.63;7.00;;;8.80;96.70;;;;;;5054247;28;20447;-75
2023/03/07 03:03:23;;;;;;;6.43;5.45;;;8.80;96.70;;;;;;5050584;28;20217;-75
2023/03/07 03:05:51;;;;;;;6.75;5.88;;;8.90;96.70;;;;;;5048745;28;20053;-76
2023/03/07 03:08:19;;;;;;;7.82;6.22;;;9.00;96.70;;;;;;5045094;28;20036;-75
2023/03/07 03:10:51;;;;;;;6.70;5.45;;;9.00;96.70;;;;;;5059660;28;20060;-75
2023/03/07 03:13:20;;;;;;;8.90;6.30;;;8.90;96.70;;;;;;5045102;28;20730;-75
2023/03/07 03:15:48;;;;;;;8.05;6.38;;;9.00;96.70;;;;;;5051945;28;20071;-75
2023/03/07 03:18:18;;;;;;;9.23;6.50;;;8.90;96.70;;;;;;5059785;28;20060;-75
2023/03/07 03:20:45;;;;;;;9.00;6.50;;;9.00;96.70;;;;;;5049242;28;20060;-75
2023/03/07 03:23:13;;;;;;;7.93;6.32;;;8.90;96.70;;;;;;5051897;28;20056;-75
2023/03/07 03:25:40;;;;;;;8.63;6.38;;;8.90;96.70;;;;;;5059269;28;20087;-75
2023/03/07 03:28:09;;;;;;;7.03;6.15;;;8.80;96.70;;;;;;5055706;28;20041;-75
2023/03/07 03:30:36;;;;;;;8.30;6.28;;;8.80;96.70;;;;;;5057403;28;20068;-75
2023/03/07 03:33:04;;;;;;;7.05;5.97;;;8.80;96.70;;;;;;5050361;28;20086;-76
2023/03/07 03:35:38;;;;;;;8.00;6.47;;;8.90;96.70;;;;;;5054670;28;20048;-75
2023/03/07 03:38:05;;;;;;;6.90;6.00;;;8.90;96.70;;;;;;5048983;28;20049;-75
2023/03/07 03:40:33;;;;;;;8.05;5.75;;;9.00;96.70;;;;;;5052494;28;20085;-76
2023/03/07 03:43:00;;;;;;;6.82;5.90;;;8.90;96.70;;;;;;5055708;28;20048;-76
2023/03/07 03:45:28;;;;;;;7.50;6.28;;;8.80;96.70;;;;;;5056525;28;20537;-76
2023/03/07 03:47:56;;;;;;;8.00;6.43;;;8.70;96.70;;;;;;5050450;28;20076;-75
2023/03/07 03:50:23;;;;;;;9.57;7.03;;;8.80;96.70;;;;;;5059721;28;20080;-76
2023/03/07 03:52:52;;;;;;;8.68;7.10;;;8.70;96.70;;;;;;5053541;28;20514;-75
2023/03/07 03:55:20;;;;;;;9.00;7.63;;;8.60;96.70;;;;;;5055856;28;20063;-75
2023/03/07 03:57:48;;;;;;;8.02;6.95;;;8.70;96.70;;;;;;5060234;28;20513;-75
2023/03/07 04:00:18;;;;;;;7.90;7.10;;;8.60;96.70;;;;;;5052967;28;21633;-75
2023/03/07 04:02:48;;;;;;;8.80;7.38;;;8.60;96.70;;;;;;5056603;28;20047;-75
2023/03/07 04:05:17;;;;;;;9.20;7.55;;;8.70;96.70;;;;;;5054351;28;20060;-75
2023/03/07 04:07:45;;;;;;;10.40;8.00;;;8.60;96.70;;;;;;5056259;28;20857;-76
2023/03/07 04:10:14;;;;;;;8.38;7.18;;;8.70;96.70;;;;;;5051526;28;21268;-76
2023/03/07 04:12:43;;;;;;;8.80;7.47;;;8.70;96.70;;;;;;5050939;28;20044;-75
2023/03/07 04:15:11;;;;;;;8.48;7.18;;;8.60;96.70;;;;;;5054338;28;21492;-76
2023/03/07 04:17:39;;;;;;;8.57;7.63;;;8.60;96.70;;;;;;5042739;28;20446;-75
2023/03/07 04:20:16;;;;;;;11.10;7.45;;;8.70;96.70;;;;;;5039783;28;20459;-76
2023/03/07 04:22:45;;;;;;;9.25;7.30;;;8.70;96.70;;;;;;5055458;28;20037;-74
2023/03/07 04:25:15;;;;;;;9.13;7.30;;;8.60;96.70;;;;;;5054708;28;20072;-75
2023/03/07 04:27:43;;;;;;;7.80;7.03;;;8.60;96.70;;;;;;5051729;28;20145;-75
2023/03/07 04:30:11;;;;;;;8.98;7.07;;;8.50;96.70;;;;;;5058335;28;20068;-75
2023/03/07 04:32:39;;;;;;;9.82;7.32;;;8.40;96.70;;;;;;5062248;28;20585;-76
2023/03/07 04:35:07;;;;;;;10.85;7.35;;;8.50;96.70;;;;;;5051583;28;20060;-75
2023/03/07 04:37:35;;;;;;;9.65;6.93;;;8.50;96.70;;;;;;5052054;28;20044;-75
2023/03/07 04:40:03;;;;;;;11.05;7.32;;;8.50;96.70;;;;;;5058496;28;20096;-75
2023/03/07 04:42:32;;;;;;;7.35;6.45;;;8.50;96.70;;;;;;5058571;28;20593;-75
2023/03/07 04:45:00;;;;;;;7.07;6.13;;;8.50;96.70;;;;;;5060991;28;20044;-75
2023/03/07 04:47:31;;;;;;;8.55;6.30;;;8.50;96.70;;;;;;5057713;28;20110;-77
2023/03/07 04:49:58;;;;;;;9.77;6.10;;;8.50;96.70;;;;;;5044334;28;20130;-75
2023/03/07 04:52:26;;;;;;;8.90;6.72;;;8.60;96.70;;;;;;5066791;28;20048;-75
2023/03/07 04:54:54;;;;;;;8.18;6.60;;;8.50;96.70;;;;;;5058359;28;20079;-75
2023/03/07 04:57:22;;;;;;;10.48;7.53;;;8.30;96.70;;;;;;5061456;28;20082;-75
2023/03/07 04:59:52;;;;;;;8.00;6.43;;;8.40;96.70;;;;;;5054583;28;20527;-75
2023/03/07 05:02:21;;;;;;;7.72;5.57;;;8.50;96.70;;;;;;5054038;28;20130;-76
2023/03/07 05:04:49;;;;;;;6.30;5.63;;;8.50;96.70;;;;;;5053213;28;20048;-75
2023/03/07 05:07:17;;;;;;;6.47;5.38;;;8.50;96.70;;;;;;5056807;28;20723;-75
2023/03/07 05:09:45;;;;;;;5.97;5.05;;;8.40;96.70;;;;;;5056884;28;20139;-75
2023/03/07 05:12:14;;;;;;;6.55;5.28;;;8.50;96.70;;;;;;5058779;28;20076;-75
2023/03/07 05:14:41;;;;;;;8.13;5.57;;;8.60;96.70;;;;;;5051927;28;20509;-75
2023/03/07 05:17:11;;;;;;;5.93;5.13;;;8.60;96.70;;;;;;5054477;28;20056;-75
2023/03/07 05:19:38;;;;;;;6.50;5.50;;;8.60;96.70;;;;;;5039175;28;20037;-75
2023/03/07 05:22:06;;;;;;;5.70;5.07;;;8.60;96.70;;;;;;5058959;28;20044;-75
2023/03/07 05:24:34;;;;;;;6.50;5.10;;;8.60;96.70;;;;;;5063270;28;20063;-76
2023/03/07 05:27:02;;;;;;;6.05;4.70;;;8.60;96.70;;;;;;5053337;28;20147;-75
2023/03/07 05:29:30;;;;;;;5.55;4.80;;;8.70;96.70;;;;;;5061690;28;20461;-75
2023/03/07 05:31:57;;;;;;;6.05;4.57;;;8.60;96.70;;;;;;5056618;28;20044;-75
2023/03/07 05:34:27;;;;;;;5.65;4.53;;;8.40;96.70;;;;;;5044329;28;20041;-75
2023/03/07 05:36:57;;;;;;;5.88;4.45;;;8.50;96.70;;;;;;5061222;28;20132;-75
2023/03/07 05:39:26;;;;;;;5.55;4.38;;;8.50;96.70;;;;;;5058145;28;20152;-75
2023/03/07 05:41:54;;;;;;;5.75;4.55;;;8.60;96.70;;;;;;5062883;28;20141;-75
2023/03/07 05:44:23;;;;;;;6.07;4.22;;;8.60;96.70;;;;;;5059755;28;20037;-75
2023/03/07 05:46:51;;;;;;;5.47;4.50;;;8.60;96.70;;;;;;5058332;28;20103;-75
2023/03/07 05:49:20;;;;;;;6.03;5.13;;;8.60;96.70;;;;;;5041547;28;20517;-75
2023/03/07 05:51:50;;;;;;;9.50;5.05;;;8.60;96.70;;;;;;5058389;28;20171;-75
2023/03/07 05:54:20;;;;;;;7.13;4.88;;;8.60;96.70;;;;;;5041841;28;20048;-76
2023/03/07 05:56:48;;;;;;;5.07;4.18;;;8.60;96.70;;;;;;5053724;28;20041;-75
2023/03/07 05:59:18;;;;;;;5.10;4.57;;;8.60;96.70;;;;;;5044055;28;20560;-75
2023/03/07 06:01:48;;;;;;;6.28;4.78;;;8.60;96.70;;;;;;5045488;28;20045;-75
2023/03/07 06:04:17;;;;;;;6.20;4.68;;;8.50;96.70;;;;;;5052965;28;20048;-75
2023/03/07 06:06:45;;;;;;;6.35;4.55;;;8.40;96.70;;;;;;5063109;28;20058;-75
2023/03/07 06:09:14;;;;;;;6.00;5.18;;;8.50;96.70;;;;;;5063853;28;20052;-75
2023/03/07 06:11:42;;;;;;;5.40;4.30;;;8.50;96.70;;;;;;5054697;28;20547;-75
2023/03/07 06:14:11;;;;;;;5.47;4.45;;;8.50;96.70;;;;;;5059875;28;20084;-75
2023/03/07 06:16:40;;;;;;;6.50;4.38;;;8.50;96.70;;;;;;5041526;28;20059;-75
2023/03/07 06:19:09;;;;;;;6.32;5.20;;;8.50;96.70;;;;;;5052749;28;20711;-75
2023/03/07 06:21:37;;;;;;;6.35;4.72;;;8.60;96.70;;;;;;5055316;28;20045;-75
2023/03/07 06:24:06;;;;;;;7.90;5.47;;;8.60;96.70;;;;;;5055484;28;20542;-75
2023/03/07 06:26:36;;;;;;;7.65;4.82;;;8.70;96.70;;;;;;5056440;28;20489;-76
2023/03/07 06:29:04;;;;;;;7.28;4.97;;;8.80;96.70;;;;;;5052657;28;20063;-75
2023/03/07 06:31:38;;;;;;;6.97;5.45;;;8.80;96.70;;;;;;5054094;28;20040;-75
2023/03/07 06:34:07;;;;;;;8.23;6.40;;;8.80;96.70;;;;;;5057110;28;20470;-75
2023/03/07 06:36:35;;;;;;;8.13;5.97;;;8.80;96.70;;;;;;5054785;28;20594;-75
2023/03/07 06:39:03;;;;;;;9.70;6.60;;;8.90;96.70;;;;;;5042578;28;20501;-75
2023/03/07 06:41:35;;;;;;;8.65;6.10;;;8.90;96.70;;;;;;5041094;28;20043;-75
2023/03/07 06:44:04;;;;;;;8.70;5.95;;;9.00;96.70;;;;;;5039837;28;20131;-76
2023/03/07 06:46:33;;;;;;;7.47;6.05;;;9.00;96.70;;;;;;5039223;28;20044;-75
2023/03/07 06:49:07;;;;;;;9.70;5.93;;;9.10;96.70;;;;;;5061111;28;20435;-75
2023/03/07 06:51:35;;;;;;;7.90;6.07;;;9.10;96.70;;;;;;5038650;28;20048;-75
2023/03/07 06:54:06;;;;;;;9.63;6.00;;;9.20;96.70;;;;;;5060733;28;20057;-75
2023/03/07 06:56:35;;;;;;;6.45;5.63;;;9.20;96.70;;;;;;5060082;28;20055;-76
2023/03/07 06:59:04;;;;;;;7.55;6.15;;;9.20;96.70;;;;;;5059790;28;20059;-75
2023/03/07 07:01:34;;;;;;;8.23;6.07;;;9.30;96.70;;;;;;5049509;28;20037;-75
2023/03/07 07:04:03;;;;;;;8.48;6.55;;;9.40;96.70;;;;;;5059545;28;20059;-75
2023/03/07 07:06:31;;;;;;;8.93;6.57;;;9.50;96.70;;;;;;5062699;28;20393;-75
2023/03/07 07:09:00;;;;;;;8.13;6.13;;;9.50;96.70;;;;;;5054761;28;20041;-75
2023/03/07 07:11:33;;;;;;;7.47;5.55;;;9.50;96.70;;;;;;5054919;28;20630;-75
2023/03/07 07:14:05;;;;;;;6.50;5.65;;;9.50;96.70;;;;;;5039408;28;20048;-75
2023/03/07 07:16:35;;;;;;;6.60;5.15;;;9.60;96.70;;;;;;5054589;28;20499;-75
2023/03/07 07:19:04;;;;;;;8.05;6.00;;;9.60;96.70;;;;;;5040994;28;20670;-75
2023/03/07 07:21:35;;;;;;;8.75;5.30;;;9.60;96.70;;;;;;5053928;28;20334;-75
2023/03/07 07:24:03;;;;;;;7.40;5.65;;;9.60;96.70;;;;;;5052117;28;20079;-75
2023/03/07 07:26:32;;;;;;;10.52;6.22;;;9.60;96.70;;;;;;5054082;28;20044;-75
2023/03/07 07:29:00;;;;;;;8.20;6.10;;;9.60;96.70;;;;;;5056179;28;20145;-75
2023/03/07 07:31:30;;;;;;;9.77;6.32;;;9.60;96.70;;;;;;5053736;28;20037;-76
2023/03/07 07:33:58;;;;;;;7.68;5.63;;;9.70;96.70;;;;;;5068997;28;20054;-73
2023/03/07 07:36:29;;;;;;;11.75;5.82;;;9.80;96.70;;;;;;5061319;28;20463;-75
2023/03/07 07:38:58;;;;;;;10.55;6.38;;;9.80;96.70;;;;;;5053644;28;20135;-75
2023/03/07 07:41:26;;;;;;;12.52;6.75;;;9.80;96.70;;;;;;5051867;28;20044;-75
2023/03/07 07:43:55;;;;;;;11.45;6.78;;;9.90;96.70;;;;;;5050055;28;20773;-75
2023/03/07 07:46:29;;;;;;;8.50;5.88;;;10.00;96.70;;;;;;5059584;28;20231;-73
2023/03/07 07:48:57;;;;;;;10.27;6.13;;;10.00;96.70;;;;;;5048979;28;20056;-74
2023/03/07 07:51:27;;;;;;;11.20;6.18;;;10.10;96.70;;;;;;5061645;28;20139;-75
2023/03/07 07:53:55;;;;;;;10.55;5.70;;;10.10;96.70;;;;;;5059743;28;20037;-75
2023/03/07 07:56:24;;;;;;;8.20;5.50;;;10.20;96.70;;;;;;5064734;28;20048;-74
2023/03/07 07:58:52;;;;;;;9.05;5.63;;;10.20;96.70;;;;;;5078785;28;20075;-75
2023/03/07 08:01:23;;;;;;;12.15;6.15;;;10.30;96.70;;;;;;5066795;28;20059;-75
2023/03/07 08:03:53;;;;;;;9.93;6.07;;;10.30;96.70;;;;;;5077524;28;20082;-77
2023/03/07 08:06:23;;;;;;;11.23;6.07;;;10.40;96.70;;;;;;5068976;28;20481;-74
2023/03/07 08:08:51;;;;;;;9.70;5.70;;;10.40;96.70;;;;;;5063241;28;20406;-75
2023/03/07 08:11:20;;;;;;;11.63;6.20;;;10.50;96.70;;;;;;5063471;28;20665;-74
2023/03/07 08:13:48;;;;;;;12.48;7.40;;;10.60;96.70;;;;;;5071798;28;21156;-75
2023/03/07 08:16:19;;;;;;;11.43;7.30;;;10.70;96.70;;;;;;5074524;28;20044;-74
2023/03/07 08:18:49;;;;;;;16.38;7.95;;;10.80;96.70;;;;;;5060407;28;20055;-75
2023/03/07 08:21:20;;;;;;;20.20;10.48;;;10.90;96.70;;;;;;5072260;28;20048;-76
2023/03/07 08:23:48;;;;;;;18.90;10.25;;;11.00;96.70;;;;;;5084883;28;20048;-75
2023/03/07 08:26:16;;;;;;;20.42;10.20;;;11.10;96.70;;;;;;5079509;28;21409;-76
2023/03/07 08:28:45;;;;;;;11.95;7.47;;;11.20;96.70;;;;;;5085874;28;20044;-75
2023/03/07 08:31:14;;;;;;;14.27;6.72;;;11.30;96.70;;;;;;5066629;28;20044;-76
2023/03/07 08:33:45;;;;;;;13.32;7.07;;;11.40;96.70;;;;;;5082362;28;20564;-76
2023/03/07 08:36:13;;;;;;;11.88;6.57;;;11.30;96.70;;;;;;5064738;28;20127;-75
2023/03/07 08:38:42;;;;;;;12.88;7.15;;;11.40;96.70;;;;;;5059151;28;20494;-75
2023/03/07 08:41:11;;;;;;;9.82;5.30;;;11.50;96.70;;;;;;5071833;28;20122;-75
2023/03/07 08:43:39;;;;;;;8.63;3.95;;;11.60;96.70;;;;;;5085394;28;20354;-77
2023/03/07 08:46:07;;;;;;;13.57;3.83;;;11.80;96.70;;;;;;5084495;28;20597;-78
2023/03/07 08:48:35;;;;;;;8.00;2.63;;;12.10;96.70;;;;;;5075251;28;20440;-78
2023/03/07 08:51:05;;;;;;;9.38;2.72;;;12.20;96.70;;;;;;5073840;28;20075;-74
2023/03/07 08:53:33;;;;;;;5.88;2.63;;;12.50;96.70;;;;;;5079075;28;20039;-76
2023/03/07 08:56:07;;;;;;;7.15;2.90;;;12.60;96.70;;;;;;5066786;28;20062;-77
2023/03/07 08:58:36;;;;;;;10.77;3.83;;;12.70;96.70;;;;;;5071954;28;20738;-75
2023/03/07 09:01:05;;;;;;;8.18;3.30;;;12.80;96.70;;;;;;5059179;28;20044;-75
2023/03/07 09:03:34;;;;;;;8.43;3.17;;;13.00;96.70;;;;;;5058833;28;20048;-76
2023/03/07 09:06:03;;;;;;;9.73;2.65;;;13.10;96.70;;;;;;5057600;28;20448;-74
2023/03/07 09:08:31;;;;;;;6.60;2.65;;;13.30;96.70;;;;;;5069945;28;20060;-76
2023/03/07 09:11:02;;;;;;;7.43;2.90;;;13.40;96.70;;;;;;5084522;28;20368;-76
2023/03/07 09:13:32;;;;;;;7.75;2.50;;;13.50;96.70;;;;;;5075998;28;20075;-76
2023/03/07 09:16:16;;;;;;;11.13;2.83;;;13.70;96.70;;;;;;5083877;28;20044;-76
2023/03/07 09:18:44;;;;;;;8.40;2.80;;;13.80;96.70;;;;;;5076926;28;20298;-75
2023/03/07 09:21:13;;;;;;;7.38;2.67;;;13.80;96.70;;;;;;5066728;28;20383;-75
2023/03/07 09:23:42;;;;;;;6.47;2.78;;;13.80;96.70;;;;;;5077748;28;20097;-75
2023/03/07 09:26:10;;;;;;;9.30;2.80;;;13.70;96.70;;;;;;5075153;28;20044;-75
2023/03/07 09:28:40;;;;;;;4.95;2.42;;;13.70;96.70;;;;;;5048805;28;20556;-75
2023/03/07 09:31:09;;;;;;;9.60;3.38;;;13.90;96.70;;;;;;5068960;28;20148;-75
2023/03/07 09:33:38;;;;;;;7.80;3.13;;;13.90;96.70;;;;;;5077753;28;20047;-76
2023/03/07 09:36:08;;;;;;;7.35;2.95;;;14.00;96.70;;;;;;5083548;28;20798;-74
2023/03/07 09:38:36;;;;;;;9.50;3.08;;;14.00;96.70;;;;;;5075193;28;20512;-75
2023/03/07 09:41:25;;;;;;;5.72;2.30;;;14.10;96.70;;;;;;5083604;28;20047;-75
2023/03/07 09:44:02;;;;;;;6.30;2.17;;;14.10;96.70;;;;;;5035007;28;20052;-74
2023/03/07 09:47:02;;;;;;;6.90;2.35;;;14.20;96.70;;;;;;5075111;28;20063;-74
2023/03/07 09:49:33;;;;;;;5.70;2.33;;;14.40;96.70;;;;;;5061131;28;20051;-74
2023/03/07 09:52:02;;;;;;;4.70;2.40;;;14.60;96.70;;;;;;5074670;28;20044;-74
2023/03/07 09:54:39;;;;;;;7.70;2.20;;;14.70;96.70;;;;;;5083834;28;20036;-74
2023/03/07 09:57:15;;;;;;;9.18;2.65;;;14.80;96.70;;;;;;5074753;28;20044;-74
2023/03/07 09:59:47;;;;;;;6.72;2.97;;;14.90;96.70;;;;;;5075529;28;20409;-74
2023/03/07 10:02:20;;;;;;;5.20;2.40;;;15.10;96.70;;;;;;5079342;28;20091;-74
2023/03/07 10:04:53;;;;;;;6.85;2.45;;;14.90;96.70;;;;;;5073797;28;20049;-74
2023/03/07 10:07:24;;;;;;;11.52;2.65;;;14.60;96.70;;;;;;5070272;28;20041;-74
2023/03/07 10:09:57;;;;;;;6.80;2.55;;;14.30;96.70;;;;;;5058387;28;20058;-74
2023/03/07 10:12:42;;;;;;;7.30;2.47;;;14.30;96.70;;;;;;5082320;28;20147;-74
2023/03/07 10:15:36;;;;;;;8.18;2.95;;;14.30;96.70;;;;;;5083240;28;20131;-74
2023/03/07 10:18:20;;;;;;;7.93;2.97;;;14.20;96.70;;;;;;5071913;28;20051;-74
2023/03/07 10:20:52;;;;;;;6.65;3.00;;;14.20;96.70;;;;;;5071712;28;20044;-75
2023/03/07 10:23:36;;;;;;;8.45;3.35;;;14.30;96.70;;;;;;5081571;28;20077;-74
2023/03/07 10:26:10;;;;;;;7.07;3.60;;;14.50;96.70;;;;;;5082117;28;20067;-74
2023/03/07 10:28:41;;;;;;;13.45;4.93;;;14.80;96.70;;;;;;5068128;28;20092;-74
2023/03/07 10:31:22;;;;;;;9.50;3.95;;;14.90;96.70;;;;;;5075652;28;20048;-74
2023/03/07 10:33:52;;;;;;;12.45;4.30;;;14.80;96.70;;;;;;5081845;28;20051;-74
2023/03/07 10:36:22;;;;;;;9.65;4.20;;;14.60;96.70;;;;;;5079979;28;20048;-75
2023/03/07 10:38:59;;;;;;;10.05;4.45;;;14.30;96.70;;;;;;5074017;28;20040;-75
2023/03/07 10:41:27;;;;;;;10.38;4.68;;;14.10;96.70;;;;;;5064770;28;20052;-74
2023/03/07 10:43:56;;;;;;;11.43;4.57;;;14.10;96.70;;;;;;5083227;28;20047;-74
2023/03/07 10:46:28;;;;;;;11.85;4.45;;;14.00;96.70;;;;;;5081878;28;20525;-74
2023/03/07 10:49:06;;;;;;;10.48;4.90;;;13.90;96.70;;;;;;5081783;28;20475;-75
2023/03/07 10:51:49;;;;;;;13.50;5.18;;;13.80;96.70;;;;;;5072703;28;20052;-73
2023/03/07 10:54:21;;;;;;;14.80;5.72;;;13.70;96.70;;;;;;5076031;28;20051;-75
2023/03/07 10:57:04;;;;;;;15.40;5.82;;;13.70;96.70;;;;;;5069290;28;20041;-75
2023/03/07 10:59:33;;;;;;;10.50;5.45;;;13.90;96.70;;;;;;5071798;28;20040;-75
2023/03/07 11:02:17;;;;;;;10.48;5.95;;;14.20;96.70;;;;;;5091794;28;20040;-74
2023/03/07 11:04:46;;;;;;;9.65;5.38;;;14.30;96.70;;;;;;5078334;28;20147;-74
2023/03/07 11:07:27;;;;;;;14.82;6.18;;;14.60;96.70;;;;;;5077992;28;20521;-75
2023/03/07 11:09:56;;;;;;;13.07;6.15;;;14.80;96.70;;;;;;5069243;28;20047;-75
2023/03/07 11:12:25;;;;;;;10.65;6.70;;;14.90;96.70;;;;;;5081457;28;20902;-74
2023/03/07 11:14:56;;;;;;;14.02;5.78;;;14.90;96.70;;;;;;5041660;28;20036;-74
2023/03/07 11:17:40;;;;;;;11.63;5.20;;;14.70;96.70;;;;;;5042648;28;20053;-75
2023/03/07 11:20:19;;;;;;;10.30;6.20;;;14.90;96.70;;;;;;5035199;28;20054;-75
2023/03/07 11:22:48;;;;;;;10.95;5.78;;;15.20;96.70;;;;;;5017234;28;20059;-75
2023/03/07 11:25:19;;;;;;;9.82;6.15;;;15.30;96.70;;;;;;5038073;28;20052;-75
2023/03/07 11:27:50;;;;;;;9.30;5.75;;;15.20;96.70;;;;;;5040385;28;20406;-74
2023/03/07 11:30:24;;;;;;;10.27;5.88;;;15.00;96.70;;;;;;5031203;28;20050;-74
2023/03/07 11:33:05;;;;;;;12.68;5.70;;;15.00;96.70;;;;;;5038224;28;20072;-74
2023/03/07 11:35:49;;;;;;;11.95;6.10;;;15.30;96.70;;;;;;5038192;28;20059;-75
2023/03/07 11:38:27;;;;;;;14.77;5.40;;;15.00;96.70;;;;;;5027075;28;20122;-74
2023/03/07 11:41:02;;;;;;;11.02;4.75;;;14.70;96.70;;;;;;5040616;28;20045;-75
2023/03/07 11:43:42;;;;;;;9.65;5.03;;;14.60;96.70;;;;;;5040801;28;20049;-76
2023/03/07 11:46:21;;;;;;;12.10;5.63;;;14.40;96.70;;;;;;5024315;28;20407;-75
2023/03/07 11:49:04;;;;;;;9.75;5.65;;;14.30;96.70;;;;;;5040581;28;20053;-75
2023/03/07 11:51:48;;;;;;;10.75;5.03;;;14.30;96.70;;;;;;5013233;28;20052;-75
2023/03/07 11:54:23;;;;;;;13.48;5.10;;;14.40;96.70;;;;;;5032374;28;20044;-74
2023/03/07 11:56:54;;;;;;;10.98;5.72;;;14.40;96.70;;;;;;5039330;28;20065;-75
2023/03/07 11:59:55;;;;;;;14.23;5.40;;;14.20;96.70;;;;;;5039074;28;20581;-75
2023/03/07 12:02:48;;;;;;;11.80;5.35;;;14.10;96.70;;;;;;5031037;28;20321;-75
2023/03/07 12:05:32;;;;;;;13.00;5.65;;;13.90;96.70;;;;;;5038951;28;20076;-75
2023/03/07 12:08:22;;;;;;;14.20;5.90;;;13.60;96.70;;;;;;5039714;28;20072;-75
2023/03/07 12:11:02;;;;;;;12.88;5.95;;;13.30;96.70;;;;;;5030104;28;20145;-76
2023/03/07 12:13:39;;;;;;;9.05;5.53;;;13.10;96.70;;;;;;5049485;28;20122;-77
2023/03/07 12:16:18;;;;;;;11.10;5.75;;;12.90;96.70;;;;;;5074057;28;20093;-76
2023/03/07 12:19:11;;;;;;;10.40;5.78;;;12.80;96.70;;;;;;5074264;28;20490;-76
2023/03/07 12:22:00;;;;;;;12.43;5.78;;;12.80;96.70;;;;;;5063279;28;20144;-76
2023/03/07 12:24:33;;;;;;;15.10;6.10;;;12.80;96.70;;;;;;5071325;28;20055;-76
2023/03/07 12:27:09;;;;;;;13.80;6.10;;;12.80;96.70;;;;;;5079221;28;20071;-76
2023/03/07 12:29:40;;;;;;;15.38;6.45;;;12.90;96.70;;;;;;5064637;28;20043;-76
2023/03/07 12:32:12;;;;;;;11.63;6.03;;;13.10;96.70;;;;;;5070340;28;20519;-76
2023/03/07 12:34:44;;;;;;;16.08;6.40;;;13.30;96.70;;;;;;5068326;28;20048;-76
2023/03/07 12:37:19;;;;;;;17.25;7.20;;;13.50;96.70;;;;;;5075780;28;20548;-76
2023/03/07 12:39:50;;;;;;;11.55;6.00;;;13.70;96.70;;;;;;5072181;28;20067;-76
2023/03/07 12:42:30;;;;;;;10.73;6.05;;;13.70;96.70;;;;;;5081937;28;20541;-76
2023/03/07 12:45:02;;;;;;;13.10;7.00;;;13.80;96.70;;;;;;5081677;28;21219;-76
2023/03/07 12:47:43;;;;;;;12.35;6.07;;;13.70;96.70;;;;;;5075558;28;20040;-76
2023/03/07 12:50:17;;;;;;;15.27;6.20;;;13.60;96.70;;;;;;5062304;28;20036;-76
2023/03/07 12:52:51;;;;;;;12.65;6.00;;;13.50;96.70;;;;;;5066758;28;20040;-76
2023/03/07 12:55:23;;;;;;;10.35;5.80;;;13.50;96.70;;;;;;5085287;28;20123;-76
2023/03/07 12:58:02;;;;;;;11.18;6.07;;;13.40;96.70;;;;;;5066503;28;20048;-76
2023/03/07 13:00:34;;;;;;;11.80;6.20;;;13.40;96.70;;;;;;5081275;28;20040;-76
2023/03/07 13:03:05;;;;;;;9.80;6.18;;;13.30;96.70;;;;;;5050542;28;20060;-77
2023/03/07 13:05:35;;;;;;;14.95;6.75;;;13.30;96.70;;;;;;5080373;28;20043;-76